• Join FlightAware (Why Join?)
  • Login
  • US Flag 
05:00AM EDT


 

Airport Tracker/Info


-or-


 

Live Flight TrackerFlight Track Log ✈ FEX100 ✈ 28-Jun-2013 ✈ CYSB - CYKZ

Flight Track Log - Related Links

Times and Time Zones

All times are in EDT time to prevent confusion due to time zone crossing. See the FEX100 flight status page for this flight to view local times or setup timezone preferences in your user account.

Time Position Orientation Groundspeed Altitude Reporting Facility
EDT Latitude Longitude Course Direction KTS MPH feet Rate Location/Type
07:28PM 46.6500 -80.7000 90° East 150 173 5,200  Level Toronto Center
07:29PM 46.6000 -80.6667 155° Southeast 170 196 6,700 1,620 Climbing Toronto Center
07:30PM 46.5500 -80.6500 167° South 170 196 8,500 1,620 Climbing Toronto Center
07:31PM 46.5167 -80.6167 145° Southeast 170 196 10,000 1,500 Climbing Toronto Center
07:32PM 46.4667 -80.6000 167° South 170 196 11,500 1,380 Climbing Toronto Center
07:33PM 46.4167 -80.5667 155° Southeast 170 196 12,800 1,260 Climbing Toronto Center
07:34PM 46.3833 -80.5667 180° South 160 184 14,100 1,140 Climbing Toronto Center
07:35PM 46.3333 -80.5500 167° South 160 184 15,100 1,080 Climbing Toronto Center
07:36PM 46.3000 -80.5167 145° Southeast 170 196 16,300 900 Climbing Toronto Center
07:37PM 46.2333 -80.5000 170° South 180 207 16,900 300 Climbing Toronto Center
07:38PM 46.1833 -80.4667 155° Southeast 200 230 17,000  Climbing Toronto Center
07:39PM 46.1167 -80.4500 170° South 230 265 17,000  Level Toronto Center
07:40PM 46.0667 -80.4167 155° Southeast 240 276 17,000  Level Toronto Center
07:41PM 46.0000 -80.3833 161° South 240 276 17,000  Level Toronto Center
07:42PM 45.9333 -80.3500 161° South 240 276 17,000  Level Toronto Center
07:43PM 45.8833 -80.3333 167° South 240 276 17,000  Level Toronto Center
07:44PM 45.8167 -80.2833 152° Southeast 240 276 17,000  Level Toronto Center
07:45PM 45.7500 -80.2500 161° South 240 276 17,000  Level Toronto Center
07:46PM 45.6833 -80.2000 152° Southeast 240 276 17,000  Level Toronto Center
07:47PM 45.6333 -80.1833 167° South 240 276 17,000  Level Toronto Center
07:48PM 45.5667 -80.1333 152° Southeast 240 276 17,000  Level Toronto Center
07:49PM 45.5000 -80.1000 161° South 240 276 17,000  Level Toronto Center
07:50PM 45.4333 -80.0833 170° South 250 288 17,000  Level Toronto Center
07:51PM 45.3667 -80.0333 152° Southeast 240 276 17,000  Level Toronto Center
07:52PM 45.3167 -80.0167 167° South 240 276 17,000  Level Toronto Center
07:53PM 45.2500 -79.9667 152° Southeast 240 276 17,000  Level Toronto Center
07:54PM 45.1833 -79.9333 161° South 240 276 17,000 -60 Level Toronto Center
07:55PM 45.1167 -79.9167 170° South 240 276 16,900  Descending Toronto Center
07:56PM 45.0667 -79.8667 145° Southeast 240 276 17,000 -420 Climbing Toronto Center
07:57PM 44.9833 -79.8500 172° South 250 288 16,100 -1,380 Descending Toronto Center
07:58PM 44.9167 -79.8167 161° South 280 322 14,300 -1,800 Descending Toronto Center
07:59PM 44.8333 -79.7667 157° South 300 345 12,600 -1,560 Descending Toronto Center
08:00PM 44.7667 -79.7333 160° South 290 334 11,200 -1,560 Descending Toronto Center
08:01PM 44.6833 -79.7000 164° South 290 334 9,500 -1,560 Descending Toronto Center
08:02PM 44.6167 -79.6500 152° Southeast 290 334 8,100 -1,440 Descending Toronto Center
08:03PM 44.5500 -79.6167 160° South 280 322 6,700 -1,500 Descending Toronto Center
08:04PM 44.4667 -79.5833 164° South 280 322 5,200 -1,140 Descending Toronto Center
08:05PM 44.4000 -79.5333 152° Southeast 270 311 4,500 -600 Descending Toronto Center
08:06PM 44.3333 -79.5167 170° South 260 299 4,100 -300 Descending Toronto Center
08:07PM 44.2667 -79.5000 170° South 250 288 3,900 -120 Descending Toronto Center
08:08PM 44.2000 -79.5000 180° South 240 276 3,900  Level Toronto Center
08:09PM 44.1333 -79.5000 180° South 220 253 3,900 -420 Level Toronto Center
08:10PM 44.0833 -79.5000 180° South 200 230 3,100 -480 Descending Toronto Center
08:11PM 44.0333 -79.5167 193° South 180 207 3,000 -240 Descending Toronto Center
08:12PM 43.9833 -79.5000 167° South 170 196 2,700 -420 Descending Toronto Center
08:13PM 43.9500 -79.4500 133° Southeast 160 184 2,200 -360 Descending Toronto Center
08:14PM 43.9167 -79.4167 144° Southeast 130 150 2,000 -300 Descending Toronto Center
08:15PM 43.9000 -79.4000 144° Southeast 120 138 1,700 -480 Descending Toronto Center
08:16PM 43.8667 -79.3833 160° South 120 138 1,100 -600 Descending Toronto Center